Time;durP1;ratioP1;P1;durP2;ratioP2;P2;SDS_P1;SDS_P2;PMS_P1;PMS_P2;Temp;Humidity;BMP_temperature;BMP_pressure;BME280_temperature;BME280_humidity;BME280_pressure;Samples;Min_cycle;Max_cycle;Signal;HPM_P1;HPM_P2
2021/10/26 00:01:53;;;;;;;12.40;4.03;;;;;;;;;;4943330;28;20152;-82
2021/10/26 00:04:20;;;;;;;15.48;4.20;;;;;;;;;;4944842;28;20042;-81
2021/10/26 00:06:46;;;;;;;11.63;3.78;;;;;;;;;;4937741;28;20038;-81
2021/10/26 00:09:13;;;;;;;;;;;;;;;;;;4931524;28;20043;-82
2021/10/26 00:11:41;;;;;;;11.75;3.33;;;;;;;;;;4954791;28;19919;-81
2021/10/26 00:14:09;;;;;;;12.32;3.70;;;;;;;;;;4956291;28;20046;-81
2021/10/26 00:16:35;;;;;;;13.18;3.95;;;;;;;;;;4957522;28;20034;-80
2021/10/26 00:19:03;;;;;;;;;;;;;;;;;;4957682;28;20123;-80
2021/10/26 00:21:29;;;;;;;11.15;3.85;;;;;;;;;;4980582;28;20525;-79
2021/10/26 00:23:55;;;;;;;;;;;;;;;;;;4978138;28;20619;-79
2021/10/26 00:26:21;;;;;;;14.40;3.45;;;;;;;;;;4997328;28;19917;-80
2021/10/26 00:28:47;;;;;;;;;;;;;;;;;;4984288;28;20026;-80
2021/10/26 00:31:14;;;;;;;14.13;4.32;;;;;;;;;;4979356;28;19919;-80
2021/10/26 00:33:42;;;;;;;12.55;3.88;;;;;;;;;;4977001;28;20041;-80
2021/10/26 00:36:09;;;;;;;15.25;4.28;;;;;;;;;;4982141;28;20029;-80
2021/10/26 00:38:38;;;;;;;15.30;4.15;;;;;;;;;;4982468;28;20033;-79
2021/10/26 00:41:06;;;;;;;15.05;4.28;;;;;;;;;;4997622;28;20065;-79
2021/10/26 00:43:33;;;;;;;12.15;3.63;;;;;;;;;;4998620;28;20621;-80
2021/10/26 00:46:00;;;;;;;11.35;3.38;;;;;;;;;;4982068;28;20116;-80
2021/10/26 00:48:28;;;;;;;13.38;3.80;;;;;;;;;;5003164;28;20037;-79
2021/10/26 00:50:55;;;;;;;14.27;3.78;;;;;;;;;;4991976;28;20629;-78
2021/10/26 00:53:21;;;;;;;13.68;3.78;;;;;;;;;;4999855;28;20048;-79
2021/10/26 00:55:49;;;;;;;14.52;4.32;;;;;;;;;;4992940;28;20029;-79
2021/10/26 00:58:15;;;;;;;16.80;4.13;;;;;;;;;;4995143;28;20029;-80
2021/10/26 01:00:43;;;;;;;12.63;4.47;;;;;;;;;;4991527;28;20091;-79
2021/10/26 01:03:12;;;;;;;11.52;3.50;;;;;;;;;;4987660;28;20216;-79
2021/10/26 01:05:38;;;;;;;11.18;3.20;;;;;;;;;;4953541;28;20149;-80
2021/10/26 01:08:05;;;;;;;;;;;;;;;;;;4959231;28;20030;-80
2021/10/26 01:10:34;;;;;;;13.60;3.55;;;;;;;;;;4958052;28;20315;-80
2021/10/26 01:13:02;;;;;;;14.88;3.97;;;;;;;;;;4947373;28;20033;-80
2021/10/26 01:15:29;;;;;;;15.10;4.10;;;;;;;;;;4944582;28;20035;-80
2021/10/26 01:17:58;;;;;;;13.55;3.38;;;;;;;;;;4956062;28;20893;-81
2021/10/26 01:20:25;;;;;;;10.48;3.25;;;;;;;;;;4947425;28;20097;-79
2021/10/26 01:22:52;;;;;;;11.90;3.13;;;;;;;;;;4951408;28;20700;-80
2021/10/26 01:25:18;;;;;;;;;;;;;;;;;;4962514;28;20052;-81
2021/10/26 01:27:47;;;;;;;10.00;3.00;;;;;;;;;;4952228;28;20029;-80
2021/10/26 01:30:16;;;;;;;15.23;3.60;;;;;;;;;;4959907;28;20066;-80
2021/10/26 01:32:42;;;;;;;16.70;3.88;;;;;;;;;;4941996;28;20471;-81
2021/10/26 01:35:10;;;;;;;12.18;3.45;;;;;;;;;;4948703;28;20133;-80
2021/10/26 01:37:36;;;;;;;16.13;4.22;;;;;;;;;;4938325;28;20051;-80
2021/10/26 01:40:02;;;;;;;11.93;4.18;;;;;;;;;;4957808;28;20110;-80
2021/10/26 01:42:29;;;;;;;15.27;3.65;;;;;;;;;;4942571;28;20261;-79
2021/10/26 01:44:56;;;;;;;;;;;;;;;;;;4948683;28;20415;-80
2021/10/26 01:47:23;;;;;;;10.75;4.00;;;;;;;;;;4941775;28;19921;-80
2021/10/26 01:49:49;;;;;;;9.85;3.28;;;;;;;;;;4952406;28;20477;-80
2021/10/26 01:52:16;;;;;;;;;;;;;;;;;;4961127;28;20545;-80
2021/10/26 01:54:42;;;;;;;16.40;4.25;;;;;;;;;;4926901;28;20296;-80
2021/10/26 01:57:11;;;;;;;13.88;3.38;;;;;;;;;;4918170;28;20061;-80
2021/10/26 01:59:39;;;;;;;13.32;3.42;;;;;;;;;;4938824;28;20041;-80
2021/10/26 02:02:06;;;;;;;13.30;3.67;;;;;;;;;;4970945;28;20768;-80
2021/10/26 02:04:37;;;;;;;11.73;3.40;;;;;;;;;;4995382;28;20559;-79
2021/10/26 02:07:06;;;;;;;12.82;3.35;;;;;;;;;;4971606;28;20678;-79
2021/10/26 02:09:34;;;;;;;10.23;3.10;;;;;;;;;;4982840;28;20116;-80
2021/10/26 02:12:01;;;;;;;11.85;2.90;;;;;;;;;;4998722;28;20041;-79
2021/10/26 02:14:28;;;;;;;13.52;3.72;;;;;;;;;;4995604;28;20037;-80
2021/10/26 02:16:56;;;;;;;14.32;3.75;;;;;;;;;;4999456;28;20065;-80
2021/10/26 02:19:23;;;;;;;12.50;3.58;;;;;;;;;;5002178;28;20186;-79
2021/10/26 02:21:49;;;;;;;;;;;;;;;;;;4981632;28;20041;-81
2021/10/26 02:24:17;;;;;;;12.23;3.10;;;;;;;;;;4986531;28;20347;-81
2021/10/26 02:26:45;;;;;;;10.60;2.90;;;;;;;;;;4996224;28;20037;-80
2021/10/26 02:29:12;;;;;;;11.43;3.55;;;;;;;;;;4995584;28;20054;-80
2021/10/26 02:31:43;;;;;;;13.95;3.72;;;;;;;;;;5005802;28;20035;-80
2021/10/26 02:34:11;;;;;;;12.77;3.70;;;;;;;;;;4983578;28;20049;-80
2021/10/26 02:36:38;;;;;;;15.95;4.00;;;;;;;;;;5010521;28;20298;-80
2021/10/26 02:39:05;;;;;;;;;;;;;;;;;;4988106;28;20029;-80
2021/10/26 02:41:32;;;;;;;;;;;;;;;;;;5004758;28;19933;-80
2021/10/26 02:43:59;;;;;;;10.27;2.97;;;;;;;;;;4995869;28;19913;-80
2021/10/26 02:46:25;;;;;;;11.05;2.83;;;;;;;;;;5000342;28;20022;-80
2021/10/26 02:48:53;;;;;;;11.93;3.30;;;;;;;;;;4992639;28;20033;-79
2021/10/26 02:51:19;;;;;;;11.85;3.55;;;;;;;;;;4984494;28;20037;-80
2021/10/26 02:53:45;;;;;;;;;;;;;;;;;;4981431;28;20045;-79
2021/10/26 02:56:13;;;;;;;13.10;3.13;;;;;;;;;;4968398;28;19922;-79
2021/10/26 02:58:40;;;;;;;16.65;4.07;;;;;;;;;;4984528;28;20029;-80
2021/10/26 03:01:07;;;;;;;14.48;3.70;;;;;;;;;;4988656;28;20025;-80
2021/10/26 03:03:33;;;;;;;;;;;;;;;;;;4980004;28;20064;-80
2021/10/26 03:05:59;;;;;;;11.00;2.80;;;;;;;;;;4992304;28;19968;-80
2021/10/26 03:08:26;;;;;;;12.48;3.58;;;;;;;;;;4981327;28;20038;-79
2021/10/26 03:10:52;;;;;;;12.25;2.92;;;;;;;;;;4987020;28;21507;-79
2021/10/26 03:13:20;;;;;;;;;;;;;;;;;;4996618;28;20408;-81
2021/10/26 03:15:47;;;;;;;14.93;3.60;;;;;;;;;;4989585;28;19917;-79
2021/10/26 03:18:14;;;;;;;11.57;3.70;;;;;;;;;;4998575;28;20801;-79
2021/10/26 03:20:41;;;;;;;13.82;3.70;;;;;;;;;;4992372;28;20417;-79
2021/10/26 03:23:09;;;;;;;11.07;3.10;;;;;;;;;;4983879;28;20053;-80
2021/10/26 03:25:35;;;;;;;10.68;3.30;;;;;;;;;;4986552;28;20916;-81
2021/10/26 03:28:01;;;;;;;;;;;;;;;;;;4995635;28;20030;-80
2021/10/26 03:30:28;;;;;;;11.57;3.17;;;;;;;;;;4986337;28;19921;-80
2021/10/26 03:32:56;;;;;;;13.25;3.80;;;;;;;;;;4981046;28;22475;-80
2021/10/26 03:35:22;;;;;;;15.25;3.70;;;;;;;;;;4999154;28;20164;-80
2021/10/26 03:37:48;;;;;;;16.13;4.20;;;;;;;;;;4982668;28;20124;-80
2021/10/26 03:40:14;;;;;;;;;;;;;;;;;;4997029;28;20144;-80
2021/10/26 03:42:41;;;;;;;13.15;3.40;;;;;;;;;;4998825;28;19917;-80
2021/10/26 03:45:09;;;;;;;15.55;3.30;;;;;;;;;;5003567;28;20029;-80
2021/10/26 03:47:39;;;;;;;13.30;3.47;;;;;;;;;;4987842;28;20132;-81
2021/10/26 03:50:07;;;;;;;15.00;3.50;;;;;;;;;;4992856;28;20096;-80
2021/10/26 03:52:33;;;;;;;15.07;3.03;;;;;;;;;;5001098;28;20075;-80
2021/10/26 03:55:01;;;;;;;14.25;3.53;;;;;;;;;;4986049;28;20034;-79
2021/10/26 03:57:29;;;;;;;10.10;2.72;;;;;;;;;;5006463;28;20095;-80
2021/10/26 03:59:56;;;;;;;12.77;4.00;;;;;;;;;;4989624;28;20041;-80
2021/10/26 04:02:28;;;;;;;13.10;3.15;;;;;;;;;;5003987;28;20055;-81
2021/10/26 04:05:17;;;;;;;14.02;3.15;;;;;;;;;;4998782;28;20120;-80
2021/10/26 04:07:49;;;;;;;14.00;3.80;;;;;;;;;;4975047;28;20103;-80
2021/10/26 04:10:21;;;;;;;12.25;3.33;;;;;;;;;;5003346;28;20026;-82
2021/10/26 04:12:51;;;;;;;10.52;2.70;;;;;;;;;;4996710;28;20049;-80
2021/10/26 04:15:19;;;;;;;11.57;3.50;;;;;;;;;;4974610;28;20041;-81
2021/10/26 04:17:46;;;;;;;11.50;3.28;;;;;;;;;;4980900;28;20037;-81
2021/10/26 04:20:13;;;;;;;11.88;3.42;;;;;;;;;;4993386;28;20033;-81
2021/10/26 04:22:40;;;;;;;11.43;3.20;;;;;;;;;;4995910;28;20512;-80
2021/10/26 04:25:10;;;;;;;11.05;3.30;;;;;;;;;;4999632;28;20069;-81
2021/10/26 04:27:40;;;;;;;11.65;3.00;;;;;;;;;;4982670;28;20048;-82
2021/10/26 04:30:08;;;;;;;11.77;3.03;;;;;;;;;;5000477;28;20037;-82
2021/10/26 04:32:36;;;;;;;12.75;3.42;;;;;;;;;;4977617;28;20037;-83
2021/10/26 04:35:04;;;;;;;13.45;3.15;;;;;;;;;;4997796;28;20114;-82
2021/10/26 04:37:32;;;;;;;10.80;3.80;;;;;;;;;;4998815;28;20038;-82
2021/10/26 04:40:02;;;;;;;12.23;2.78;;;;;;;;;;4988356;28;20799;-80
2021/10/26 04:42:29;;;;;;;11.95;2.80;;;;;;;;;;4997788;28;20068;-81
2021/10/26 04:44:57;;;;;;;11.20;3.10;;;;;;;;;;4978089;28;20778;-82
2021/10/26 04:47:26;;;;;;;9.75;3.10;;;;;;;;;;4978981;28;20045;-81
2021/10/26 04:49:55;;;;;;;9.48;3.00;;;;;;;;;;4980929;28;22298;-81
2021/10/26 04:52:22;;;;;;;13.85;3.10;;;;;;;;;;4993418;28;20653;-81
2021/10/26 04:54:49;;;;;;;13.43;3.40;;;;;;;;;;4994028;28;20045;-81
2021/10/26 04:57:16;;;;;;;13.52;3.97;;;;;;;;;;4997224;28;20573;-81
2021/10/26 04:59:43;;;;;;;14.05;3.67;;;;;;;;;;4993357;28;20037;-81
2021/10/26 05:02:09;;;;;;;;;;;;;;;;;;4981484;28;20045;-80
2021/10/26 05:04:36;;;;;;;11.63;3.00;;;;;;;;;;4975521;28;19958;-80
2021/10/26 05:07:03;;;;;;;12.07;2.95;;;;;;;;;;4999104;28;20041;-80
2021/10/26 05:09:31;;;;;;;12.10;2.83;;;;;;;;;;4996900;28;20038;-81
2021/10/26 05:11:57;;;;;;;10.48;2.70;;;;;;;;;;4963549;28;20450;-80
2021/10/26 05:14:24;;;;;;;11.57;2.65;;;;;;;;;;4980385;28;20033;-81
2021/10/26 05:16:53;;;;;;;9.60;2.53;;;;;;;;;;4973236;28;20064;-80
2021/10/26 05:19:21;;;;;;;10.73;2.60;;;;;;;;;;4998019;28;20457;-83
2021/10/26 05:21:48;;;;;;;8.23;2.60;;;;;;;;;;4991488;28;20033;-80
2021/10/26 05:24:14;;;;;;;12.18;3.38;;;;;;;;;;4994898;28;20053;-81
2021/10/26 05:26:41;;;;;;;11.50;2.80;;;;;;;;;;4979930;28;20847;-81
2021/10/26 05:29:12;;;;;;;9.38;2.60;;;;;;;;;;4995391;28;20068;-80
2021/10/26 05:31:40;;;;;;;13.05;2.95;;;;;;;;;;4978029;28;20036;-84
2021/10/26 05:34:09;;;;;;;13.23;3.08;;;;;;;;;;5001059;28;20033;-83
2021/10/26 05:36:38;;;;;;;15.57;3.17;;;;;;;;;;4971041;28;20038;-83
2021/10/26 05:39:07;;;;;;;12.48;2.60;;;;;;;;;;5000371;28;20491;-79
2021/10/26 05:41:42;;;;;;;9.02;2.60;;;;;;;;;;4995506;28;20042;-80
2021/10/26 05:44:08;;;;;;;11.57;2.58;;;;;;;;;;4976516;28;20153;-82
2021/10/26 05:46:36;;;;;;;8.90;2.67;;;;;;;;;;4999322;28;20094;-80
2021/10/26 05:49:03;;;;;;;10.82;2.72;;;;;;;;;;4994890;28;20037;-80
2021/10/26 05:51:31;;;;;;;12.05;4.55;;;;;;;;;;5005743;28;20799;-79
2021/10/26 05:54:00;;;;;;;10.90;2.83;;;;;;;;;;5012124;28;20033;-81
2021/10/26 05:56:28;;;;;;;12.57;3.40;;;;;;;;;;4978905;28;20037;-79
2021/10/26 05:58:54;;;;;;;12.13;3.28;;;;;;;;;;4998101;28;21371;-80
2021/10/26 06:01:21;;;;;;;;;;;;;;;;;;5002157;28;20025;-79
2021/10/26 06:03:47;;;;;;;7.78;2.53;;;;;;;;;;4995264;28;19921;-80
2021/10/26 06:06:14;;;;;;;11.48;3.35;;;;;;;;;;4997252;28;20121;-80
2021/10/26 06:08:42;;;;;;;12.18;3.22;;;;;;;;;;4988466;28;20030;-80
2021/10/26 06:11:11;;;;;;;12.32;2.75;;;;;;;;;;5003930;28;20034;-80
2021/10/26 06:13:43;;;;;;;10.80;2.85;;;;;;;;;;4997027;28;20047;-80
2021/10/26 06:16:10;;;;;;;11.18;2.95;;;;;;;;;;4987807;28;20042;-80
2021/10/26 06:18:37;;;;;;;11.95;3.20;;;;;;;;;;4999745;28;20046;-79
2021/10/26 06:21:04;;;;;;;9.43;2.88;;;;;;;;;;4994442;28;20033;-79
2021/10/26 06:23:32;;;;;;;10.30;3.30;;;;;;;;;;4985331;28;20042;-79
2021/10/26 06:25:59;;;;;;;16.67;3.05;;;;;;;;;;4979259;28;20053;-78
2021/10/26 06:28:26;;;;;;;13.65;3.03;;;;;;;;;;4996262;28;20028;-79
2021/10/26 06:31:04;;;;;;;15.30;3.05;;;;;;;;;;4990461;28;20697;-79
2021/10/26 06:33:41;;;;;;;10.77;3.25;;;;;;;;;;4997783;28;20042;-79
2021/10/26 06:36:07;;;;;;;;;;;;;;;;;;4998924;28;20037;-79
2021/10/26 06:38:36;;;;;;;11.75;3.28;;;;;;;;;;4998556;28;19928;-80
2021/10/26 06:41:07;;;;;;;12.63;3.15;;;;;;;;;;4992695;28;20038;-79
2021/10/26 06:43:38;;;;;;;12.88;3.17;;;;;;;;;;4983005;28;20033;-79
2021/10/26 06:46:07;;;;;;;12.25;3.35;;;;;;;;;;4993964;28;20572;-79
2021/10/26 06:48:34;;;;;;;9.57;3.15;;;;;;;;;;4996565;28;20056;-78
2021/10/26 06:51:02;;;;;;;11.15;3.45;;;;;;;;;;4999432;28;20037;-78
2021/10/26 06:53:30;;;;;;;11.40;3.90;;;;;;;;;;4998234;28;20046;-78
2021/10/26 06:56:03;;;;;;;13.05;3.63;;;;;;;;;;4991787;28;20107;-78
2021/10/26 06:58:29;;;;;;;16.13;4.47;;;;;;;;;;4981105;28;20172;-78
2021/10/26 07:00:55;;;;;;;;;;;;;;;;;;4979741;28;20036;-79
2021/10/26 07:03:22;;;;;;;12.43;4.07;;;;;;;;;;4980750;28;19917;-79
2021/10/26 07:05:48;;;;;;;;;;;;;;;;;;4988958;28;20140;-80
2021/10/26 07:08:17;;;;;;;12.70;3.60;;;;;;;;;;4987952;28;20028;-80
2021/10/26 07:10:48;;;;;;;14.45;4.43;;;;;;;;;;4978981;28;20021;-81
2021/10/26 07:13:15;;;;;;;14.85;4.57;;;;;;;;;;4998166;28;20698;-81
2021/10/26 07:15:42;;;;;;;15.48;5.50;;;;;;;;;;4992942;28;20064;-78
2021/10/26 07:18:10;;;;;;;18.08;5.82;;;;;;;;;;5000848;28;20645;-80
2021/10/26 07:20:36;;;;;;;16.30;5.97;;;;;;;;;;4975177;28;20127;-80
2021/10/26 07:23:03;;;;;;;17.90;6.40;;;;;;;;;;4983241;28;20381;-80
2021/10/26 07:25:29;;;;;;;16.48;6.60;;;;;;;;;;4998606;28;20642;-79
2021/10/26 07:27:58;;;;;;;;;;;;;;;;;;4991977;28;21589;-80
2021/10/26 07:30:35;;;;;;;23.08;8.05;;;;;;;;;;5000250;28;19921;-79
2021/10/26 07:33:03;;;;;;;15.52;7.32;;;;;;;;;;4998015;28;20091;-79
2021/10/26 07:35:37;;;;;;;18.52;10.18;;;;;;;;;;4994042;28;20029;-79
2021/10/26 07:38:04;;;;;;;19.55;9.77;;;;;;;;;;4986262;28;20626;-79
2021/10/26 07:40:33;;;;;;;21.90;11.38;;;;;;;;;;4979510;28;20036;-79
2021/10/26 07:43:01;;;;;;;24.88;14.93;;;;;;;;;;4980613;28;20155;-79
2021/10/26 07:45:29;;;;;;;23.88;15.18;;;;;;;;;;5003579;28;20095;-78
2021/10/26 07:47:56;;;;;;;22.65;13.25;;;;;;;;;;4985191;28;21424;-78
2021/10/26 07:50:22;;;;;;;20.92;11.82;;;;;;;;;;4982149;28;20041;-82
2021/10/26 07:52:49;;;;;;;18.08;10.68;;;;;;;;;;4980612;28;20518;-80
2021/10/26 07:55:16;;;;;;;15.73;7.75;;;;;;;;;;4978605;28;20504;-80
2021/10/26 07:57:45;;;;;;;13.35;6.60;;;;;;;;;;4995106;28;20149;-80
2021/10/26 08:00:12;;;;;;;14.38;6.10;;;;;;;;;;4995971;28;20516;-80
2021/10/26 08:02:39;;;;;;;18.13;7.72;;;;;;;;;;4988873;28;20038;-80
2021/10/26 08:05:07;;;;;;;17.85;8.05;;;;;;;;;;4998953;28;20034;-80
2021/10/26 08:07:35;;;;;;;17.85;8.00;;;;;;;;;;4993603;28;20606;-80
2021/10/26 08:10:01;;;;;;;22.73;10.20;;;;;;;;;;4976562;28;20037;-80
2021/10/26 08:12:28;;;;;;;19.42;9.80;;;;;;;;;;4987468;28;20421;-80
2021/10/26 08:14:56;;;;;;;20.65;9.20;;;;;;;;;;4974328;28;20049;-79
2021/10/26 08:17:25;;;;;;;18.58;8.43;;;;;;;;;;4993893;28;20456;-80
2021/10/26 08:19:51;;;;;;;14.75;6.40;;;;;;;;;;4979109;28;20563;-80
2021/10/26 08:22:20;;;;;;;16.63;6.22;;;;;;;;;;4991482;28;20032;-80
2021/10/26 08:24:47;;;;;;;13.10;4.80;;;;;;;;;;4990988;28;20441;-80
2021/10/26 08:27:18;;;;;;;10.85;4.30;;;;;;;;;;4982674;28;20030;-80
2021/10/26 08:29:54;;;;;;;11.45;4.22;;;;;;;;;;4990523;28;20041;-79
2021/10/26 08:34:53;;;;;;;12.30;3.95;;;;;;;;;;4982694;28;20446;-78
2021/10/26 08:37:19;;;;;;;12.80;4.05;;;;;;;;;;4996775;28;20116;-79
2021/10/26 08:39:45;;;;;;;10.80;3.55;;;;;;;;;;4993018;28;20038;-78
2021/10/26 08:42:17;;;;;;;10.13;3.42;;;;;;;;;;4991804;28;20057;-79
2021/10/26 08:44:43;;;;;;;8.57;2.95;;;;;;;;;;4991650;28;20062;-79
2021/10/26 08:47:11;;;;;;;8.82;3.10;;;;;;;;;;4996409;28;20076;-79
2021/10/26 08:49:39;;;;;;;14.02;3.20;;;;;;;;;;4972076;28;20033;-79
2021/10/26 08:52:06;;;;;;;8.95;2.47;;;;;;;;;;4981186;28;20033;-79
2021/10/26 08:54:39;;;;;;;9.20;2.38;;;;;;;;;;4995203;28;20310;-78
2021/10/26 08:57:06;;;;;;;10.88;2.33;;;;;;;;;;4995078;28;20164;-79
2021/10/26 08:59:33;;;;;;;8.68;2.20;;;;;;;;;;4986174;28;20029;-79
2021/10/26 09:01:59;;;;;;;7.50;1.80;;;;;;;;;;4991885;28;20102;-87
2021/10/26 09:04:36;;;;;;;8.40;1.77;;;;;;;;;;4996930;28;20396;-86
2021/10/26 09:07:06;;;;;;;11.45;2.00;;;;;;;;;;5000305;28;20534;-86
2021/10/26 09:09:36;;;;;;;8.00;1.88;;;;;;;;;;4983104;28;20038;-85
2021/10/26 09:17:33;;;;;;;11.07;1.85;;;;;;;;;;4995128;28;20052;-86
2021/10/26 09:20:00;;;;;;;5.50;1.45;;;;;;;;;;4983137;28;20033;-87
2021/10/26 09:22:29;;;;;;;4.78;1.40;;;;;;;;;;5005909;28;20478;-85
2021/10/26 09:25:02;;;;;;;7.95;1.80;;;;;;;;;;4984271;28;20061;-87
2021/10/26 09:27:45;;;;;;;8.98;1.73;;;;;;;;;;4942157;28;20089;-85
2021/10/26 09:30:21;;;;;;;8.15;1.80;;;;;;;;;;4930736;28;20706;-85
2021/10/26 09:32:48;;;;;;;7.35;1.80;;;;;;;;;;4938879;28;20038;-84
2021/10/26 09:35:19;;;;;;;7.13;1.73;;;;;;;;;;4918792;28;20039;-83
2021/10/26 09:37:49;;;;;;;9.32;1.75;;;;;;;;;;4933922;28;20051;-83
2021/10/26 09:40:18;;;;;;;8.45;2.38;;;;;;;;;;4937524;28;20543;-82
2021/10/26 09:42:47;;;;;;;8.32;1.60;;;;;;;;;;4949346;28;20143;-83
2021/10/26 09:45:31;;;;;;;7.18;1.65;;;;;;;;;;4945415;28;20034;-85
2021/10/26 09:47:59;;;;;;;11.73;2.15;;;;;;;;;;4924132;28;20074;-84
2021/10/26 09:50:37;;;;;;;9.02;2.00;;;;;;;;;;4934579;28;20062;-84
2021/10/26 09:53:07;;;;;;;7.43;2.03;;;;;;;;;;4932369;28;20039;-84
2021/10/26 09:55:40;;;;;;;7.82;1.77;;;;;;;;;;4924287;28;20037;-85
2021/10/26 09:58:18;;;;;;;12.18;2.38;;;;;;;;;;4939257;28;20074;-86
2021/10/26 10:00:46;;;;;;;7.22;1.73;;;;;;;;;;4998655;28;20029;-84
2021/10/26 10:03:13;;;;;;;6.47;1.60;;;;;;;;;;4991294;28;20062;-86
2021/10/26 10:05:56;;;;;;;7.45;1.67;;;;;;;;;;5000220;28;20034;-87
2021/10/26 10:08:29;;;;;;;12.50;2.55;;;;;;;;;;4984298;28;20091;-84
2021/10/26 10:11:17;;;;;;;14.43;2.88;;;;;;;;;;4997170;28;20030;-84
2021/10/26 10:13:54;;;;;;;11.20;1.95;;;;;;;;;;4998078;28;20022;-84
2021/10/26 10:16:36;;;;;;;8.35;2.00;;;;;;;;;;4982590;28;20037;-85
2021/10/26 10:19:05;;;;;;;9.18;2.00;;;;;;;;;;4981358;28;20136;-84
2021/10/26 10:21:35;;;;;;;8.40;2.35;;;;;;;;;;4983657;28;20777;-86
2021/10/26 10:24:02;;;;;;;8.80;2.55;;;;;;;;;;4987253;28;20047;-83
2021/10/26 10:26:37;;;;;;;8.45;2.30;;;;;;;;;;4987525;28;20125;-84
2021/10/26 10:29:20;;;;;;;7.05;1.70;;;;;;;;;;5002758;28;20039;-85
2021/10/26 10:31:49;;;;;;;8.23;2.00;;;;;;;;;;5003778;28;20022;-85
2021/10/26 10:34:19;;;;;;;7.15;1.80;;;;;;;;;;4998247;28;20396;-86
2021/10/26 10:36:49;;;;;;;7.53;1.80;;;;;;;;;;4995361;28;20061;-86
2021/10/26 10:39:18;;;;;;;5.68;1.52;;;;;;;;;;4988840;28;20040;-84
2021/10/26 10:41:45;;;;;;;7.05;1.88;;;;;;;;;;4980779;28;20148;-82
2021/10/26 10:44:22;;;;;;;9.27;1.50;;;;;;;;;;4997973;28;20057;-83
2021/10/26 10:46:55;;;;;;;6.68;1.15;;;;;;;;;;4982805;28;20025;-82
2021/10/26 10:49:23;;;;;;;7.18;1.38;;;;;;;;;;4995909;28;20026;-83
2021/10/26 10:51:57;;;;;;;6.68;1.50;;;;;;;;;;4993672;28;20409;-83
2021/10/26 10:54:43;;;;;;;7.85;1.30;;;;;;;;;;4986350;28;20037;-82
2021/10/26 10:57:22;;;;;;;8.38;1.50;;;;;;;;;;4990529;28;20044;-82
2021/10/26 10:59:56;;;;;;;6.05;1.40;;;;;;;;;;4998471;28;20088;-83
2021/10/26 11:02:27;;;;;;;7.22;1.73;;;;;;;;;;4987599;28;20025;-82
2021/10/26 11:04:57;;;;;;;7.95;1.60;;;;;;;;;;4975373;28;20738;-83
2021/10/26 11:07:42;;;;;;;6.93;1.67;;;;;;;;;;5001231;28;20025;-83
2021/10/26 11:10:09;;;;;;;7.53;2.10;;;;;;;;;;4973638;28;20067;-83
2021/10/26 11:12:38;;;;;;;9.38;1.90;;;;;;;;;;4968889;28;20945;-82
2021/10/26 11:15:09;;;;;;;6.30;1.50;;;;;;;;;;5002266;28;20032;-82
2021/10/26 11:17:35;;;;;;;6.82;1.85;;;;;;;;;;4974157;28;20049;-82
2021/10/26 11:20:14;;;;;;;6.72;1.60;;;;;;;;;;4975619;28;20029;-84
2021/10/26 11:22:47;;;;;;;8.85;2.00;;;;;;;;;;4981053;28;20161;-82
2021/10/26 11:25:36;;;;;;;7.88;2.08;;;;;;;;;;4997565;28;20079;-83
2021/10/26 11:28:17;;;;;;;7.75;2.50;;;;;;;;;;4991352;28;20032;-82
2021/10/26 11:30:44;;;;;;;7.70;2.42;;;;;;;;;;4995707;28;20481;-82
2021/10/26 11:33:17;;;;;;;9.35;3.10;;;;;;;;;;4997996;28;20045;-82
2021/10/26 11:36:07;;;;;;;9.40;2.42;;;;;;;;;;4974207;28;21122;-82
2021/10/26 11:38:40;;;;;;;9.60;2.13;;;;;;;;;;4989215;28;20100;-82
2021/10/26 11:41:13;;;;;;;7.78;1.90;;;;;;;;;;4998453;28;20544;-84
2021/10/26 11:43:42;;;;;;;7.35;1.85;;;;;;;;;;4973496;28;20032;-83
2021/10/26 11:46:16;;;;;;;7.93;1.70;;;;;;;;;;4999564;28;20075;-83
2021/10/26 11:48:47;;;;;;;7.05;1.60;;;;;;;;;;4992599;28;20121;-84
2021/10/26 11:51:27;;;;;;;7.80;1.52;;;;;;;;;;4994246;28;20120;-81
2021/10/26 11:53:59;;;;;;;7.43;1.52;;;;;;;;;;4992522;28;20034;-82
2021/10/26 11:56:44;;;;;;;6.88;1.50;;;;;;;;;;4983477;28;20052;-82
2021/10/26 11:59:11;;;;;;;;;;;;;;;;;;4977356;28;20041;-82
2021/10/26 12:01:46;;;;;;;7.25;1.80;;;;;;;;;;4998530;28;19919;-82
2021/10/26 12:04:13;;;;;;;8.00;2.20;;;;;;;;;;4981440;28;20053;-82
2021/10/26 12:06:40;;;;;;;8.63;1.50;;;;;;;;;;4974981;28;20592;-82
2021/10/26 12:09:10;;;;;;;6.30;1.70;;;;;;;;;;5000987;28;20033;-80
2021/10/26 12:11:38;;;;;;;6.40;1.38;;;;;;;;;;4993030;28;20037;-79
2021/10/26 12:14:11;;;;;;;5.93;1.25;;;;;;;;;;4981938;28;20106;-80
2021/10/26 12:16:37;;;;;;;7.85;1.67;;;;;;;;;;4996023;28;20053;-80
2021/10/26 12:19:07;;;;;;;7.63;1.67;;;;;;;;;;4977160;28;20113;-80
2021/10/26 12:21:33;;;;;;;5.80;1.60;;;;;;;;;;4995438;28;20144;-81
2021/10/26 12:24:00;;;;;;;7.70;1.63;;;;;;;;;;4994647;28;20038;-82
2021/10/26 12:26:26;;;;;;;9.57;1.75;;;;;;;;;;4994266;28;20054;-80
2021/10/26 12:28:57;;;;;;;7.30;1.80;;;;;;;;;;4976700;28;20036;-80
2021/10/26 12:31:25;;;;;;;7.28;1.67;;;;;;;;;;4999068;28;20370;-80
2021/10/26 12:34:01;;;;;;;8.23;1.50;;;;;;;;;;4978464;28;20045;-80
2021/10/26 12:36:28;;;;;;;8.40;1.40;;;;;;;;;;4996318;28;20081;-81
2021/10/26 12:39:04;;;;;;;7.35;1.73;;;;;;;;;;4976021;28;20149;-81
2021/10/26 12:41:41;;;;;;;8.40;1.80;;;;;;;;;;4996321;28;20105;-81
2021/10/26 12:44:12;;;;;;;6.35;1.92;;;;;;;;;;4994074;28;20899;-81
2021/10/26 12:46:40;;;;;;;12.00;5.03;;;;;;;;;;4973558;28;20029;-81
2021/10/26 12:49:13;;;;;;;9.38;4.70;;;;;;;;;;4989802;28;20107;-80
2021/10/26 12:51:40;;;;;;;9.43;2.67;;;;;;;;;;4992965;28;20575;-84
2021/10/26 12:54:13;;;;;;;6.93;1.50;;;;;;;;;;4973783;28;20033;-84
2021/10/26 12:56:51;;;;;;;5.75;1.50;;;;;;;;;;4975844;28;20076;-84
2021/10/26 12:59:18;;;;;;;6.38;1.40;;;;;;;;;;4986075;28;20144;-84
2021/10/26 13:01:49;;;;;;;7.13;1.40;;;;;;;;;;4992541;28;20125;-83
2021/10/26 13:04:25;;;;;;;8.15;1.80;;;;;;;;;;4999672;28;20081;-84
2021/10/26 13:06:54;;;;;;;8.50;1.60;;;;;;;;;;4990105;28;20044;-83
2021/10/26 13:09:23;;;;;;;6.93;1.45;;;;;;;;;;4994008;28;20502;-84
2021/10/26 13:12:00;;;;;;;8.18;1.83;;;;;;;;;;4994818;28;20042;-84
2021/10/26 13:14:35;;;;;;;7.07;1.73;;;;;;;;;;4998010;28;20026;-83
2021/10/26 13:17:01;;;;;;;9.17;1.67;;;;;;;;;;4994105;28;20041;-83
2021/10/26 13:19:31;;;;;;;6.68;1.55;;;;;;;;;;4982236;28;20275;-83
2021/10/26 13:22:10;;;;;;;8.55;1.70;;;;;;;;;;4972987;28;20041;-83
2021/10/26 13:24:37;;;;;;;6.72;1.60;;;;;;;;;;4994660;28;20037;-84
2021/10/26 13:27:03;;;;;;;7.45;1.98;;;;;;;;;;5000243;28;20069;-83
2021/10/26 13:29:41;;;;;;;8.43;1.80;;;;;;;;;;4990983;28;20041;-83
2021/10/26 13:32:09;;;;;;;6.30;1.75;;;;;;;;;;5000085;28;20139;-83
2021/10/26 13:34:36;;;;;;;6.57;1.35;;;;;;;;;;4974094;28;20642;-84
2021/10/26 13:37:02;;;;;;;5.65;1.52;;;;;;;;;;4978983;28;20637;-86
2021/10/26 13:39:29;;;;;;;8.32;2.00;;;;;;;;;;4989595;28;20038;-85
2021/10/26 13:41:56;;;;;;;13.05;1.80;;;;;;;;;;4968148;28;20038;-86
2021/10/26 13:44:22;;;;;;;6.78;2.10;;;;;;;;;;4970723;28;20037;-85
2021/10/26 13:46:50;;;;;;;9.18;3.00;;;;;;;;;;4996590;28;20032;-86
2021/10/26 13:49:21;;;;;;;8.77;2.50;;;;;;;;;;4982357;28;20060;-86
2021/10/26 13:51:49;;;;;;;8.43;1.63;;;;;;;;;;4980761;28;20538;-87
2021/10/26 13:54:15;;;;;;;6.75;1.70;;;;;;;;;;5000420;28;20037;-86
2021/10/26 13:56:41;;;;;;;8.70;1.83;;;;;;;;;;4976296;28;20037;-86
2021/10/26 13:59:08;;;;;;;8.82;1.80;;;;;;;;;;4995853;28;20769;-86
2021/10/26 14:01:34;;;;;;;7.40;1.60;;;;;;;;;;5000519;28;20018;-86
2021/10/26 14:04:00;;;;;;;7.57;1.70;;;;;;;;;;4969301;28;20053;-84
2021/10/26 14:06:27;;;;;;;8.23;1.77;;;;;;;;;;4983140;28;20037;-86
2021/10/26 14:08:56;;;;;;;8.57;1.80;;;;;;;;;;4990076;28;20038;-86
2021/10/26 14:11:23;;;;;;;8.25;1.30;;;;;;;;;;4980615;28;20037;-81
2021/10/26 14:13:50;;;;;;;5.85;1.30;;;;;;;;;;4993428;28;20059;-80
2021/10/26 14:16:17;;;;;;;8.07;1.67;;;;;;;;;;4981326;28;20363;-80
2021/10/26 14:18:47;;;;;;;7.18;1.67;;;;;;;;;;4993634;28;20107;-80
2021/10/26 14:21:14;;;;;;;8.32;2.08;;;;;;;;;;5001203;28;20080;-80
2021/10/26 14:23:42;;;;;;;8.40;1.73;;;;;;;;;;4993338;28;20045;-82
2021/10/26 14:26:11;;;;;;;7.85;1.40;;;;;;;;;;4998184;28;20045;-80
2021/10/26 14:28:38;;;;;;;9.05;1.30;;;;;;;;;;4981282;28;20040;-80
2021/10/26 14:31:09;;;;;;;7.95;1.75;;;;;;;;;;4996814;28;20037;-82
2021/10/26 14:33:36;;;;;;;8.82;1.42;;;;;;;;;;4997080;28;20195;-80
2021/10/26 14:36:09;;;;;;;7.40;1.23;;;;;;;;;;4990244;28;20034;-81
2021/10/26 14:41:41;;;;;;;8.38;1.45;;;;;;;;;;4996533;28;20034;-81
2021/10/26 14:52:47;;;;;;;9.65;1.63;;;;;;;;;;4993725;28;20310;-81
2021/10/26 14:55:27;;;;;;;8.48;2.45;;;;;;;;;;4991532;28;20048;-81
2021/10/26 14:57:57;;;;;;;10.15;2.72;;;;;;;;;;4994150;28;20041;-81
2021/10/26 15:00:28;;;;;;;9.63;2.05;;;;;;;;;;4978845;28;20513;-81
2021/10/26 15:02:58;;;;;;;4.93;1.50;;;;;;;;;;4976591;28;21302;-81
2021/10/26 15:05:25;;;;;;;8.30;1.98;;;;;;;;;;4997095;28;21151;-81
2021/10/26 15:07:52;;;;;;;8.15;1.80;;;;;;;;;;4988356;28;20064;-81
2021/10/26 15:10:43;;;;;;;11.60;2.30;;;;;;;;;;4995556;28;20033;-82
2021/10/26 15:13:16;;;;;;;10.02;1.88;;;;;;;;;;4998820;28;20044;-81
2021/10/26 15:15:43;;;;;;;9.45;2.17;;;;;;;;;;4985817;28;20493;-81